Time;durP1;ratioP1;P1;durP2;ratioP2;P2;SDS_P1;SDS_P2;PMS_P1;PMS_P2;Temp;Humidity;BMP_temperature;BMP_pressure;BME280_temperature;BME280_humidity;BME280_pressure;Samples;Min_cycle;Max_cycle;Signal;HPM_P1;HPM_P2
2023/12/20 00:00:02;;;;;;;;;;;;;;;;;;4918181;29;19947;-75
2023/12/20 00:02:28;;;;;;;;;;;;;;;;;;4913891;29;19924;-74
2023/12/20 00:04:53;;;;;;;;;;;;;;;;;;4914072;29;20382;-76
2023/12/20 00:07:18;;;;;;;;;;;;;;;;;;4931641;28;20422;-74
2023/12/20 00:09:44;;;;;;;;;;;;;;;;;;4918101;28;19974;-73
2023/12/20 00:12:09;;;;;;;;;;;;;;;;;;4915106;29;19993;-73
2023/12/20 00:14:34;;;;;;;;;;;;;;;;;;4930843;28;19919;-73
2023/12/20 00:16:59;;;;;;;;;;;;;;;;;;4913268;29;19946;-74
2023/12/20 00:19:25;;;;;;;;;;;;;;;;;;4928393;28;19926;-74
2023/12/20 00:21:50;;;;;;;;;;;;;;;;;;4914754;29;19953;-76
2023/12/20 00:24:16;;;;;;;;;;;;;;;;;;4914569;29;20279;-75
2023/12/20 00:26:42;;;;;;;;;;;;;;;;;;4913835;29;20316;-73
2023/12/20 00:29:07;;;;;;;;;;;;;;;;;;4913511;29;20566;-76
2023/12/20 00:31:48;;;;;;;;;;;;;;;;;;4911311;29;19927;-75
2023/12/20 00:34:13;;;;;;;;;;;;;;;;;;4926427;28;20390;-73
2023/12/20 00:36:38;;;;;;;;;;;;;;;;;;4913957;28;19927;-75
2023/12/20 00:39:04;;;;;;;;;;;;;;;;;;4927126;28;19922;-73
2023/12/20 00:41:29;;;;;;;;;;;;;;;;;;4927573;28;20391;-74
2023/12/20 00:43:57;;;;;;;;;;;;;;;;;;4927294;28;19934;-72
2023/12/20 00:46:22;;;;;;;;;;;;;;;;;;4914222;28;19923;-73
2023/12/20 00:48:47;;;;;;;;;;;;;;;;;;4928532;28;19927;-73
2023/12/20 00:51:13;;;;;;;;;;;;;;;;;;4926966;28;20200;-75
2023/12/20 00:53:38;;;;;;;;;;;;;;;;;;4926372;28;19938;-72
2023/12/20 00:56:03;;;;;;;;;;;;;;;;;;4926310;28;19923;-74
2023/12/20 00:58:29;;;;;;;;;;;;;;;;;;4911880;29;20010;-75
2023/12/20 01:00:54;;;;;;;;;;;;;;;;;;4914625;29;20033;-73
2023/12/20 01:03:19;;;;;;;;;;;;;;;;;;4925761;28;20009;-78
2023/12/20 01:05:45;;;;;;;;;;;;;;;;;;4927336;28;20001;-75
2023/12/20 01:08:10;;;;;;;;;;;;;;;;;;4927669;28;20475;-74
2023/12/20 01:10:35;;;;;;;;;;;;;;;;;;4927539;28;19926;-75
2023/12/20 01:13:00;;;;;;;;;;;;;;;;;;4912424;29;20454;-75
2023/12/20 01:15:29;;;;;;;;;;;;;;;;;;4911362;29;19974;-74
2023/12/20 01:17:54;;;;;;;;;;;;;;;;;;4926469;28;20905;-75
2023/12/20 01:20:20;;;;;;;;;;;;;;;;;;4926107;28;19929;-75
2023/12/20 01:22:45;;;;;;;;;;;;;;;;;;4927421;28;19956;-74
2023/12/20 01:25:11;;;;;;;;;;;;;;;;;;4910540;28;20516;-72
2023/12/20 01:27:36;;;;;;;;;;;;;;;;;;4910388;29;19970;-75
2023/12/20 01:30:04;;;;;;;;;;;;;;;;;;4928979;28;20010;-71
2023/12/20 01:32:30;;;;;;;;;;;;;;;;;;4908472;28;19929;-73
2023/12/20 01:34:55;;;;;;;;;;;;;;;;;;4926146;28;20022;-75
2023/12/20 01:37:23;;;;;;;;;;;;;;;;;;4927423;28;19929;-73
2023/12/20 01:39:49;;;;;;;;;;;;;;;;;;4912345;29;20282;-73
2023/12/20 01:42:14;;;;;;;;;;;;;;;;;;4911972;29;20032;-70
2023/12/20 01:44:39;;;;;;;;;;;;;;;;;;4906470;28;19918;-73
2023/12/20 01:47:05;;;;;;;;;;;;;;;;;;4925622;28;20074;-74
2023/12/20 01:49:30;;;;;;;;;;;;;;;;;;4910445;29;20001;-72
2023/12/20 01:51:56;;;;;;;;;;;;;;;;;;4927903;28;19919;-70
2023/12/20 01:54:21;;;;;;;;;;;;;;;;;;4926774;28;19980;-71
2023/12/20 01:56:47;;;;;;;;;;;;;;;;;;4926454;28;20307;-78
2023/12/20 01:59:12;;;;;;;;;;;;;;;;;;4924164;28;19933;-71
2023/12/20 02:01:37;;;;;;;;;;;;;;;;;;4925261;28;19959;-70
2023/12/20 02:04:03;;;;;;;;;;;;;;;;;;4925730;28;20383;-73
2023/12/20 02:06:28;;;;;;;;;;;;;;;;;;4924970;28;19954;-71
2023/12/20 02:08:56;;;;;;;;;;;;;;;;;;4912312;29;21802;-72
2023/12/20 02:11:21;;;;;;;;;;;;;;;;;;4911022;29;19923;-71
2023/12/20 02:13:47;;;;;;;;;;;;;;;;;;4911769;29;19926;-72
2023/12/20 02:16:12;;;;;;;;;;;;;;;;;;4913830;28;20093;-72
2023/12/20 02:18:38;;;;;;;;;;;;;;;;;;4912924;29;20355;-72
2023/12/20 02:21:03;;;;;;;;;;;;;;;;;;4929665;28;19966;-72
2023/12/20 02:23:28;;;;;;;;;;;;;;;;;;4926675;28;19946;-72
2023/12/20 02:25:54;;;;;;;;;;;;;;;;;;4928389;28;20030;-73
2023/12/20 02:28:21;;;;;;;;;;;;;;;;;;4929381;28;20005;-72
2023/12/20 02:30:47;;;;;;;;;;;;;;;;;;4911004;29;19945;-72
2023/12/20 02:33:12;;;;;;;;;;;;;;;;;;4931708;28;20383;-73
2023/12/20 02:35:37;;;;;;;;;;;;;;;;;;4914110;28;19918;-73
2023/12/20 02:38:03;;;;;;;;;;;;;;;;;;4925697;28;19944;-72
2023/12/20 02:40:28;;;;;;;;;;;;;;;;;;4926642;28;19919;-72
2023/12/20 02:42:53;;;;;;;;;;;;;;;;;;4912032;29;19919;-71
2023/12/20 02:45:19;;;;;;;;;;;;;;;;;;4913691;29;19930;-73
2023/12/20 02:47:44;;;;;;;;;;;;;;;;;;4912853;28;19919;-71
2023/12/20 02:50:09;;;;;;;;;;;;;;;;;;4926839;28;20387;-70
2023/12/20 02:52:35;;;;;;;;;;;;;;;;;;4909044;29;19953;-70
2023/12/20 02:55:01;;;;;;;;;;;;;;;;;;4925955;28;19926;-72
2023/12/20 02:57:26;;;;;;;;;;;;;;;;;;4913590;28;20481;-71
2023/12/20 02:59:51;;;;;;;;;;;;;;;;;;4929582;28;19915;-72
2023/12/20 03:02:19;;;;;;;;;;;;;;;;;;4929982;28;20865;-72
2023/12/20 03:04:44;;;;;;;;;;;;;;;;;;4929577;28;19977;-72
2023/12/20 03:07:11;;;;;;;;;;;;;;;;;;4914578;29;19919;-72
2023/12/20 03:09:37;;;;;;;;;;;;;;;;;;4932068;28;19926;-73
2023/12/20 03:12:02;;;;;;;;;;;;;;;;;;4912175;28;19930;-72
2023/12/20 03:14:28;;;;;;;;;;;;;;;;;;4930097;28;19923;-72
2023/12/20 03:16:53;;;;;;;;;;;;;;;;;;4914780;29;20552;-72
2023/12/20 03:19:21;;;;;;;;;;;;;;;;;;4914580;29;19923;-72
2023/12/20 03:21:46;;;;;;;;;;;;;;;;;;4914141;29;19923;-78
2023/12/20 03:24:12;;;;;;;;;;;;;;;;;;4914616;29;19925;-70
2023/12/20 03:26:52;;;;;;;;;;;;;;;;;;4915127;28;20021;-70
2023/12/20 03:29:18;;;;;;;;;;;;;;;;;;4928491;28;19923;-71
2023/12/20 03:31:43;;;;;;;;;;;;;;;;;;4915387;28;20017;-70
2023/12/20 03:34:09;;;;;;;;;;;;;;;;;;4928254;28;19934;-69
2023/12/20 03:36:34;;;;;;;;;;;;;;;;;;4914020;29;19923;-71
2023/12/20 03:38:59;;;;;;;;;;;;;;;;;;4915088;29;19974;-70
2023/12/20 03:41:25;;;;;;;;;;;;;;;;;;4916226;29;20445;-72
2023/12/20 03:43:51;;;;;;;;;;;;;;;;;;4932636;28;20334;-72
2023/12/20 03:46:16;;;;;;;;;;;;;;;;;;4913506;28;20287;-73
2023/12/20 03:48:41;;;;;;;;;;;;;;;;;;4929425;28;19923;-72
2023/12/20 03:51:07;;;;;;;;;;;;;;;;;;4928992;28;19931;-72
2023/12/20 03:53:32;;;;;;;;;;;;;;;;;;4911788;29;19938;-72
2023/12/20 03:55:58;;;;;;;;;;;;;;;;;;4914230;28;19998;-72
2023/12/20 03:58:23;;;;;;;;;;;;;;;;;;4925305;28;19923;-71
2023/12/20 04:00:48;;;;;;;;;;;;;;;;;;4915324;29;20313;-71
2023/12/20 04:03:14;;;;;;;;;;;;;;;;;;4912289;29;19938;-72
2023/12/20 04:05:39;;;;;;;;;;;;;;;;;;4914995;28;19945;-68
2023/12/20 04:08:05;;;;;;;;;;;;;;;;;;4927817;28;19918;-72
2023/12/20 04:10:30;;;;;;;;;;;;;;;;;;4914712;28;20012;-71
2023/12/20 04:12:56;;;;;;;;;;;;;;;;;;4912548;29;19942;-70
2023/12/20 04:15:21;;;;;;;;;;;;;;;;;;4925301;28;19919;-69
2023/12/20 04:17:46;;;;;;;;;;;;;;;;;;4922870;28;19919;-70
2023/12/20 04:20:12;;;;;;;;;;;;;;;;;;4911392;28;19923;-69
2023/12/20 04:22:37;;;;;;;;;;;;;;;;;;4913651;29;20583;-72
2023/12/20 04:25:03;;;;;;;;;;;;;;;;;;4912240;29;20318;-72
2023/12/20 04:27:28;;;;;;;;;;;;;;;;;;4925423;28;20109;-74
2023/12/20 04:29:53;;;;;;;;;;;;;;;;;;4913377;28;19929;-74
2023/12/20 04:32:21;;;;;;;;;;;;;;;;;;4912749;28;19975;-69
2023/12/20 04:34:46;;;;;;;;;;;;;;;;;;4927738;28;19942;-74
2023/12/20 04:37:12;;;;;;;;;;;;;;;;;;4927096;28;19965;-75
2023/12/20 04:39:37;;;;;;;;;;;;;;;;;;4926981;28;19922;-71
2023/12/20 04:42:05;;;;;;;;;;;;;;;;;;4927758;28;19973;-70
2023/12/20 04:44:30;;;;;;;;;;;;;;;;;;4913273;28;20374;-70
2023/12/20 04:46:56;;;;;;;;;;;;;;;;;;4912286;29;19919;-71
2023/12/20 04:49:22;;;;;;;;;;;;;;;;;;4926646;28;19922;-70
2023/12/20 04:51:47;;;;;;;;;;;;;;;;;;4927214;28;19918;-70
2023/12/20 04:54:13;;;;;;;;;;;;;;;;;;4927635;28;19926;-67
2023/12/20 04:56:38;;;;;;;;;;;;;;;;;;4924225;28;20635;-69
2023/12/20 04:59:04;;;;;;;;;;;;;;;;;;4926336;28;20397;-69
2023/12/20 05:01:29;;;;;;;;;;;;;;;;;;4926711;28;20391;-69
2023/12/20 05:03:55;;;;;;;;;;;;;;;;;;4913857;28;19922;-68
2023/12/20 05:06:20;;;;;;;;;;;;;;;;;;4927204;28;19919;-71
2023/12/20 05:08:45;;;;;;;;;;;;;;;;;;4913047;29;19919;-71
2023/12/20 05:11:13;;;;;;;;;;;;;;;;;;4926848;28;19938;-71
2023/12/20 05:13:41;;;;;;;;;;;;;;;;;;4926076;28;19923;-73
2023/12/20 05:16:09;;;;;;;;;;;;;;;;;;4913830;29;19942;-72
2023/12/20 05:18:37;;;;;;;;;;;;;;;;;;4914341;28;19926;-68
2023/12/20 05:21:02;;;;;;;;;;;;;;;;;;4928065;28;20370;-72
2023/12/20 05:23:27;;;;;;;;;;;;;;;;;;4927346;28;20072;-71
2023/12/20 05:25:53;;;;;;;;;;;;;;;;;;4928091;28;19932;-69
2023/12/20 05:28:18;;;;;;;;;;;;;;;;;;4929687;28;19923;-78
2023/12/20 05:30:44;;;;;;;;;;;;;;;;;;4926847;28;20358;-72
2023/12/20 05:33:09;;;;;;;;;;;;;;;;;;4911976;28;20331;-70
2023/12/20 05:35:35;;;;;;;;;;;;;;;;;;4928374;28;20894;-69
2023/12/20 05:38:00;;;;;;;;;;;;;;;;;;4909302;29;20409;-72
2023/12/20 05:40:25;;;;;;;;;;;;;;;;;;4927538;28;20023;-72
2023/12/20 05:42:50;;;;;;;;;;;;;;;;;;4912373;29;20737;-72
2023/12/20 05:45:16;;;;;;;;;;;;;;;;;;4925208;28;19965;-76
2023/12/20 05:47:41;;;;;;;;;;;;;;;;;;4913174;29;20169;-72
2023/12/20 05:50:07;;;;;;;;;;;;;;;;;;4912593;29;19958;-73
2023/12/20 05:52:32;;;;;;;;;;;;;;;;;;4927681;28;20275;-74
2023/12/20 05:55:00;;;;;;;;;;;;;;;;;;4926802;28;20407;-73
2023/12/20 05:57:26;;;;;;;;;;;;;;;;;;4912272;29;19930;-73
2023/12/20 05:59:51;;;;;;;;;;;;;;;;;;4912481;29;21173;-74
2023/12/20 06:02:17;;;;;;;;;;;;;;;;;;4910754;29;20320;-72
2023/12/20 06:04:42;;;;;;;;;;;;;;;;;;4927188;28;19973;-76
2023/12/20 06:07:08;;;;;;;;;;;;;;;;;;4911965;29;19954;-72
2023/12/20 06:09:36;;;;;;;;;;;;;;;;;;4913796;29;19919;-71
2023/12/20 06:12:01;;;;;;;;;;;;;;;;;;4925788;28;20023;-72
2023/12/20 06:14:27;;;;;;;;;;;;;;;;;;4926755;28;19927;-73
2023/12/20 06:16:52;;;;;;;;;;;;;;;;;;4911719;29;19962;-71
2023/12/20 06:19:17;;;;;;;;;;;;;;;;;;4911289;28;20349;-75
2023/12/20 06:21:43;;;;;;;;;;;;;;;;;;4927636;28;19927;-74
2023/12/20 06:24:09;;;;;;;;;;;;;;;;;;4927547;28;19918;-76
2023/12/20 06:26:34;;;;;;;;;;;;;;;;;;4926559;28;20053;-72
2023/12/20 06:29:00;;;;;;;;;;;;;;;;;;4925726;28;20441;-72
2023/12/20 06:31:25;;;;;;;;;;;;;;;;;;4925805;28;20229;-74
2023/12/20 06:33:57;;;;;;;;;;;;;;;;;;4927074;28;19923;-68
2023/12/20 06:36:22;;;;;;;;;;;;;;;;;;4918004;29;19919;-72
2023/12/20 06:38:47;;;;;;;;;;;;;;;;;;4915031;29;19923;-72
2023/12/20 06:41:13;;;;;;;;;;;;;;;;;;4915533;29;19923;-75
2023/12/20 06:43:40;;;;;;;;;;;;;;;;;;4916492;28;19925;-73
2023/12/20 06:46:06;;;;;;;;;;;;;;;;;;4931018;28;19954;-76
2023/12/20 06:48:31;;;;;;;;;;;;;;;;;;4930281;28;19916;-77
2023/12/20 06:50:57;;;;;;;;;;;;;;;;;;4931517;28;20093;-73
2023/12/20 06:53:22;;;;;;;;;;;;;;;;;;4916940;28;20397;-75
2023/12/20 06:55:50;;;;;;;;;;;;;;;;;;4929654;28;19926;-71
2023/12/20 06:58:16;;;;;;;;;;;;;;;;;;4931261;28;19997;-73
2023/12/20 07:00:41;;;;;;;;;;;;;;;;;;4930123;28;19963;-75
2023/12/20 07:03:07;;;;;;;;;;;;;;;;;;4915331;29;20009;-74
2023/12/20 07:05:34;;;;;;;;;;;;;;;;;;4930659;28;19973;-73
2023/12/20 07:08:00;;;;;;;;;;;;;;;;;;4930798;28;20023;-76
2023/12/20 07:10:25;;;;;;;;;;;;;;;;;;4916462;29;19918;-75
2023/12/20 07:12:52;;;;;;;;;;;;;;;;;;4929930;28;19942;-75
2023/12/20 07:15:18;;;;;;;;;;;;;;;;;;4914837;29;19919;-74
2023/12/20 07:17:43;;;;;;;;;;;;;;;;;;4915681;29;19919;-75
2023/12/20 07:23:28;;;;;;;;;;;;;;;;;;4916301;29;19925;-73
2023/12/20 07:25:53;;;;;;;;;;;;;;;;;;4930453;28;19953;-76
2023/12/20 07:28:19;;;;;;;;;;;;;;;;;;4930025;28;20010;-75
2023/12/20 07:30:44;;;;;;;;;;;;;;;;;;4929321;28;19926;-72
2023/12/20 07:33:12;;;;;;;;;;;;;;;;;;4914915;29;20430;-73
2023/12/20 07:35:40;;;;;;;;;;;;;;;;;;4916875;29;19955;-75
2023/12/20 07:38:08;;;;;;;;;;;;;;;;;;4927803;28;19930;-71
2023/12/20 07:40:34;;;;;;;;;;;;;;;;;;4914900;29;20376;-76
2023/12/20 07:43:00;;;;;;;;;;;;;;;;;;4928590;28;19981;-73
2023/12/20 07:45:26;;;;;;;;;;;;;;;;;;4929570;28;20307;-78
2023/12/20 07:47:51;;;;;;;;;;;;;;;;;;4928560;28;19925;-71
2023/12/20 07:50:16;;;;;;;;;;;;;;;;;;4908721;29;19927;-72
2023/12/20 07:52:43;;;;;;;;;;;;;;;;;;4927267;28;19927;-77
2023/12/20 07:55:08;;;;;;;;;;;;;;;;;;4929587;28;20351;-74
2023/12/20 07:57:34;;;;;;;;;;;;;;;;;;4929062;28;20347;-77
2023/12/20 07:59:59;;;;;;;;;;;;;;;;;;4929864;28;20043;-73
2023/12/20 08:02:24;;;;;;;;;;;;;;;;;;4928722;28;19914;-76
2023/12/20 08:04:49;;;;;;;;;;;;;;;;;;4929450;28;19947;-72
2023/12/20 08:07:17;;;;;;;;;;;;;;;;;;4928565;28;19923;-75
2023/12/20 08:09:43;;;;;;;;;;;;;;;;;;4929671;28;19942;-68
2023/12/20 08:12:09;;;;;;;;;;;;;;;;;;4908490;28;20762;-74
2023/12/20 08:14:39;;;;;;;;;;;;;;;;;;4928191;28;19938;-73
2023/12/20 08:17:05;;;;;;;;;;;;;;;;;;4929241;28;19973;-72
2023/12/20 08:19:30;;;;;;;;;;;;;;;;;;4929108;28;20013;-73
2023/12/20 08:21:55;;;;;;;;;;;;;;;;;;4914264;29;19923;-75
2023/12/20 08:24:21;;;;;;;;;;;;;;;;;;4913492;29;20307;-75
2023/12/20 08:26:46;;;;;;;;;;;;;;;;;;4913689;29;19923;-76
2023/12/20 08:29:11;;;;;;;;;;;;;;;;;;4928956;28;21463;-75
2023/12/20 08:31:37;;;;;;;;;;;;;;;;;;4927469;28;19973;-74
2023/12/20 08:34:02;;;;;;;;;;;;;;;;;;4914795;29;19930;-78
2023/12/20 08:36:27;;;;;;;;;;;;;;;;;;4928355;28;19919;-73
2023/12/20 08:38:53;;;;;;;;;;;;;;;;;;4927211;28;20441;-78
2023/12/20 08:41:18;;;;;;;;;;;;;;;;;;4911706;29;20374;-73
2023/12/20 08:43:43;;;;;;;;;;;;;;;;;;4928955;28;20402;-76
2023/12/20 08:46:12;;;;;;;;;;;;;;;;;;4912358;29;19922;-76
2023/12/20 08:48:37;;;;;;;;;;;;;;;;;;4928904;28;19973;-75
2023/12/20 08:51:08;;;;;;;;;;;;;;;;;;4928913;28;20692;-77
2023/12/20 08:53:33;;;;;;;;;;;;;;;;;;4915153;29;19986;-74
2023/12/20 08:56:01;;;;;;;;;;;;;;;;;;4913706;29;20027;-73
2023/12/20 08:58:27;;;;;;;;;;;;;;;;;;4926943;28;19923;-74
2023/12/20 09:00:52;;;;;;;;;;;;;;;;;;4929526;28;20458;-72
2023/12/20 09:03:17;;;;;;;;;;;;;;;;;;4930071;28;20073;-77
2023/12/20 09:05:43;;;;;;;;;;;;;;;;;;4927195;28;19918;-73
2023/12/20 09:08:10;;;;;;;;;;;;;;;;;;4929461;28;19919;-77
2023/12/20 09:10:36;;;;;;;;;;;;;;;;;;4928037;28;19934;-78
2023/12/20 09:16:17;;;;;;;;;;;;;;;;;;4913888;29;20012;-73
2023/12/20 09:18:43;;;;;;;;;;;;;;;;;;4917442;29;19934;-72
2023/12/20 09:21:08;;;;;;;;;;;;;;;;;;4929938;28;20377;-72
2023/12/20 09:23:33;;;;;;;;;;;;;;;;;;4916922;29;19945;-71
2023/12/20 09:25:59;;;;;;;;;;;;;;;;;;4931669;28;20005;-71
2023/12/20 09:28:24;;;;;;;;;;;;;;;;;;4931738;28;21841;-71
2023/12/20 09:30:50;;;;;;;;;;;;;;;;;;4928656;28;20001;-75
2023/12/20 09:33:16;;;;;;;;;;;;;;;;;;4928362;28;19923;-74
2023/12/20 09:35:41;;;;;;;;;;;;;;;;;;4915909;28;19925;-77
2023/12/20 09:39:07;;;;;;;;;;;;;;;;;;5045772;27;20034;-74
2023/12/20 09:41:33;;;;;;;;;;;;;;;;;;5029258;28;19917;-73
2023/12/20 09:44:01;;;;;;;;;;;;;;;;;;5046674;28;19928;-75
2023/12/20 09:46:26;;;;;;;;;;;;;;;;;;4992722;28;19967;-75
2023/12/20 09:49:04;;;;;;;;;;;;;;;;;;5046986;28;20000;-74
2023/12/20 09:51:29;;;;;;;;;;;;;;;;;;5014142;28;20450;-74
2023/12/20 09:53:54;;;;;;;;;;;;;;;;;;5013706;28;19917;-74
2023/12/20 09:56:20;;;;;;;;;;;;;;;;;;5031246;28;19933;-73
2023/12/20 09:58:45;;;;;;;;;;;;;;;;;;5030065;28;19968;-75
2023/12/20 10:01:13;;;;;;;;;;;;;;;;;;5030149;28;19920;-71
2023/12/20 10:03:38;;;;;;;;;;;;;;;;;;5013236;28;19928;-73
2023/12/20 10:06:04;;;;;;;;;;;;;;;;;;5019565;28;19921;-77
2023/12/20 10:08:30;;;;;;;;;;;;;;;;;;5047620;28;19980;-75
2023/12/20 10:10:57;;;;;;;;;;;;;;;;;;4990359;28;20345;-77
2023/12/20 10:13:22;;;;;;;;;;;;;;;;;;5031125;28;19970;-75
2023/12/20 10:15:48;;;;;;;;;;;;;;;;;;5031511;28;19921;-74
2023/12/20 10:18:13;;;;;;;;;;;;;;;;;;5028561;28;19925;-77
2023/12/20 10:20:38;;;;;;;;;;;;;;;;;;5031194;28;20466;-75
2023/12/20 10:23:04;;;;;;;;;;;;;;;;;;5030207;28;19921;-74
2023/12/20 10:25:31;;;;;;;;;;;;;;;;;;5009994;28;20339;-72
2023/12/20 10:27:56;;;;;;;;;;;;;;;;;;5046124;28;19920;-73
2023/12/20 10:30:24;;;;;;;;;;;;;;;;;;5029319;28;19922;-76
2023/12/20 10:32:51;;;;;;;;;;;;;;;;;;5013216;28;19932;-73
2023/12/20 10:35:16;;;;;;;;;;;;;;;;;;5031476;28;19964;-74
2023/12/20 10:37:42;;;;;;;;;;;;;;;;;;5014229;28;20000;-74
2023/12/20 10:40:08;;;;;;;;;;;;;;;;;;5031919;28;19959;-77
2023/12/20 10:42:33;;;;;;;;;;;;;;;;;;5028385;28;19920;-77
2023/12/20 10:44:59;;;;;;;;;;;;;;;;;;5028687;28;19948;-75
2023/12/20 10:47:24;;;;;;;;;;;;;;;;;;5002721;28;19921;-74
2023/12/20 10:49:49;;;;;;;;;;;;;;;;;;5014241;28;20079;-74
2023/12/20 10:52:15;;;;;;;;;;;;;;;;;;5020942;28;19917;-76
2023/12/20 10:54:41;;;;;;;;;;;;;;;;;;4983850;28;19921;-77
2023/12/20 10:57:06;;;;;;;;;;;;;;;;;;5019023;28;19920;-77
2023/12/20 10:59:31;;;;;;;;;;;;;;;;;;5015722;28;19917;-74
2023/12/20 11:01:56;;;;;;;;;;;;;;;;;;5001749;28;19935;-73
2023/12/20 11:04:22;;;;;;;;;;;;;;;;;;4986955;28;19920;-73
2023/12/20 11:06:47;;;;;;;;;;;;;;;;;;5018336;28;19921;-72
2023/12/20 11:09:12;;;;;;;;;;;;;;;;;;5020543;28;19917;-73
2023/12/20 11:11:38;;;;;;;;;;;;;;;;;;4994722;28;20349;-74
2023/12/20 11:14:03;;;;;;;;;;;;;;;;;;5018147;28;19925;-71
2023/12/20 11:16:31;;;;;;;;;;;;;;;;;;5018071;28;19928;-73
2023/12/20 11:18:57;;;;;;;;;;;;;;;;;;4982830;28;20361;-75
2023/12/20 11:21:22;;;;;;;;;;;;;;;;;;4997766;28;19964;-72
2023/12/20 11:23:48;;;;;;;;;;;;;;;;;;5017195;28;19917;-74
2023/12/20 11:26:13;;;;;;;;;;;;;;;;;;5015411;28;20528;-74
2023/12/20 11:28:38;;;;;;;;;;;;;;;;;;5016350;28;19955;-73
2023/12/20 11:31:06;;;;;;;;;;;;;;;;;;4977635;28;20572;-70
2023/12/20 11:33:32;;;;;;;;;;;;;;;;;;5010987;28;19935;-72
2023/12/20 11:36:00;;;;;;;;;;;;;;;;;;5015243;28;20372;-71
2023/12/20 11:38:25;;;;;;;;;;;;;;;;;;5015967;28;19929;-71
2023/12/20 11:40:53;;;;;;;;;;;;;;;;;;5030711;28;19917;-68
2023/12/20 11:43:19;;;;;;;;;;;;;;;;;;5012478;28;20660;-69
2023/12/20 11:45:44;;;;;;;;;;;;;;;;;;4995300;28;20011;-68
2023/12/20 11:48:13;;;;;;;;;;;;;;;;;;4996735;28;20360;-70
2023/12/20 11:50:41;;;;;;;;;;;;;;;;;;5029306;28;20002;-69
2023/12/20 11:53:08;;;;;;;;;;;;;;;;;;5015518;28;20122;-71
2023/12/20 11:55:34;;;;;;;;;;;;;;;;;;5014141;28;19917;-71
2023/12/20 11:58:02;;;;;;;;;;;;;;;;;;5031455;28;19938;-70
2023/12/20 12:00:29;;;;;;;;;;;;;;;;;;5014617;28;19975;-67
2023/12/20 12:02:57;;;;;;;;;;;;;;;;;;5030415;28;19921;-68
2023/12/20 12:05:22;;;;;;;;;;;;;;;;;;4995020;28;19917;-70
2023/12/20 12:07:50;;;;;;;;;;;;;;;;;;5017240;28;20008;-70
2023/12/20 12:10:16;;;;;;;;;;;;;;;;;;5013426;28;19921;-69
2023/12/20 12:12:44;;;;;;;;;;;;;;;;;;5013860;28;20391;-69
2023/12/20 12:15:09;;;;;;;;;;;;;;;;;;4997019;28;20019;-69
2023/12/20 12:17:35;;;;;;;;;;;;;;;;;;5030358;28;20038;-69
2023/12/20 12:20:00;;;;;;;;;;;;;;;;;;5016866;28;19917;-69
2023/12/20 12:22:27;;;;;;;;;;;;;;;;;;4997660;28;19924;-68
2023/12/20 12:24:53;;;;;;;;;;;;;;;;;;5016096;28;20395;-68
2023/12/20 12:27:21;;;;;;;;;;;;;;;;;;5013649;28;19928;-69
2023/12/20 12:29:46;;;;;;;;;;;;;;;;;;4998101;28;19917;-69
2023/12/20 12:32:11;;;;;;;;;;;;;;;;;;4996790;28;20005;-69
2023/12/20 12:34:42;;;;;;;;;;;;;;;;;;5030412;28;20454;-69
2023/12/20 12:37:10;;;;;;;;;;;;;;;;;;5013597;28;19948;-68
2023/12/20 12:39:37;;;;;;;;;;;;;;;;;;5016159;28;20012;-69
2023/12/20 12:45:19;;;;;;;;;;;;;;;;;;5012642;28;19928;-69
2023/12/20 12:47:46;;;;;;;;;;;;;;;;;;4994354;28;19917;-70
2023/12/20 12:50:12;;;;;;;;;;;;;;;;;;5014882;28;19939;-68
2023/12/20 12:52:37;;;;;;;;;;;;;;;;;;4978989;28;20513;-70
2023/12/20 12:55:04;;;;;;;;;;;;;;;;;;5029754;28;19917;-70
2023/12/20 12:57:33;;;;;;;;;;;;;;;;;;5013342;28;19929;-69
2023/12/20 12:59:58;;;;;;;;;;;;;;;;;;4973224;28;20454;-69
2023/12/20 13:02:26;;;;;;;;;;;;;;;;;;4985590;28;19968;-70
2023/12/20 13:04:52;;;;;;;;;;;;;;;;;;5015954;28;20070;-68
2023/12/20 13:07:17;;;;;;;;;;;;;;;;;;5013207;28;19928;-68
2023/12/20 13:09:45;;;;;;;;;;;;;;;;;;5030204;28;19990;-74
2023/12/20 13:12:10;;;;;;;;;;;;;;;;;;4978851;28;19966;-71
2023/12/20 13:14:38;;;;;;;;;;;;;;;;;;5014784;28;20381;-71
2023/12/20 13:17:06;;;;;;;;;;;;;;;;;;5013802;28;19921;-67
2023/12/20 13:19:33;;;;;;;;;;;;;;;;;;5012546;28;19921;-70
2023/12/20 13:22:04;;;;;;;;;;;;;;;;;;4995887;28;20049;-68
2023/12/20 13:24:32;;;;;;;;;;;;;;;;;;5029787;28;19955;-68
2023/12/20 13:27:00;;;;;;;;;;;;;;;;;;4991778;28;20415;-69
2023/12/20 13:29:28;;;;;;;;;;;;;;;;;;4997179;28;19921;-73
2023/12/20 13:31:57;;;;;;;;;;;;;;;;;;4997263;28;19928;-73
2023/12/20 13:34:25;;;;;;;;;;;;;;;;;;4997071;28;19923;-70
2023/12/20 13:36:53;;;;;;;;;;;;;;;;;;4996310;28;19975;-70
2023/12/20 13:39:18;;;;;;;;;;;;;;;;;;5012650;28;21052;-71
2023/12/20 13:41:44;;;;;;;;;;;;;;;;;;4997041;28;19917;-69
2023/12/20 13:44:12;;;;;;;;;;;;;;;;;;4994093;28;20451;-70
2023/12/20 13:46:40;;;;;;;;;;;;;;;;;;4994746;28;19924;-68
2023/12/20 13:49:07;;;;;;;;;;;;;;;;;;5012888;28;19921;-68
2023/12/20 13:51:33;;;;;;;;;;;;;;;;;;4984734;28;19924;-69
2023/12/20 13:53:58;;;;;;;;;;;;;;;;;;5013500;28;20324;-71
2023/12/20 13:56:24;;;;;;;;;;;;;;;;;;5013068;28;20422;-69
2023/12/20 13:58:53;;;;;;;;;;;;;;;;;;4994854;28;20091;-71
2023/12/20 14:01:23;;;;;;;;;;;;;;;;;;4994312;28;20402;-70
2023/12/20 14:03:50;;;;;;;;;;;;;;;;;;5013780;28;19942;-70
2023/12/20 14:06:23;;;;;;;;;;;;;;;;;;4996219;28;19924;-78
2023/12/20 14:08:54;;;;;;;;;;;;;;;;;;4994655;28;19921;-72
2023/12/20 14:11:19;;;;;;;;;;;;;;;;;;5013771;28;19921;-70
2023/12/20 14:13:44;;;;;;;;;;;;;;;;;;5012535;28;19924;-69
2023/12/20 14:16:12;;;;;;;;;;;;;;;;;;5012407;28;20300;-71
2023/12/20 14:18:40;;;;;;;;;;;;;;;;;;4992294;28;19964;-74
2023/12/20 14:21:06;;;;;;;;;;;;;;;;;;4996098;28;19921;-71
2023/12/20 14:23:46;;;;;;;;;;;;;;;;;;4992511;28;19928;-72
2023/12/20 14:26:14;;;;;;;;;;;;;;;;;;5004792;28;19933;-70
2023/12/20 14:31:56;;;;;;;;;;;;;;;;;;5015821;28;20410;-69
2023/12/20 14:34:23;;;;;;;;;;;;;;;;;;5016454;28;20023;-71
2023/12/20 14:36:49;;;;;;;;;;;;;;;;;;4998474;28;20006;-72
2023/12/20 14:39:17;;;;;;;;;;;;;;;;;;5015363;28;19921;-72
2023/12/20 14:41:45;;;;;;;;;;;;;;;;;;5032824;28;19921;-73
2023/12/20 14:44:10;;;;;;;;;;;;;;;;;;5014998;28;19917;-71
2023/12/20 14:46:36;;;;;;;;;;;;;;;;;;5014036;28;21520;-70
2023/12/20 14:49:03;;;;;;;;;;;;;;;;;;4998227;28;19917;-73
2023/12/20 14:51:28;;;;;;;;;;;;;;;;;;5015542;28;20002;-71
2023/12/20 14:53:56;;;;;;;;;;;;;;;;;;5015206;28;20300;-71
2023/12/20 14:56:23;;;;;;;;;;;;;;;;;;5017678;28;19921;-72
2023/12/20 15:02:05;;;;;;;;;;;;;;;;;;5013981;28;19960;-71
2023/12/20 15:04:30;;;;;;;;;;;;;;;;;;4998355;28;20092;-71
2023/12/20 15:06:56;;;;;;;;;;;;;;;;;;5015484;28;20300;-71
2023/12/20 15:09:21;;;;;;;;;;;;;;;;;;5013707;28;20008;-72
2023/12/20 15:11:49;;;;;;;;;;;;;;;;;;5001771;28;19914;-72
2023/12/20 15:14:19;;;;;;;;;;;;;;;;;;5030391;28;20018;-71
2023/12/20 15:16:46;;;;;;;;;;;;;;;;;;5029717;28;19929;-72
2023/12/20 15:19:22;;;;;;;;;;;;;;;;;;4999384;28;19926;-73
2023/12/20 15:21:47;;;;;;;;;;;;;;;;;;4999607;28;19921;-71
2023/12/20 15:24:16;;;;;;;;;;;;;;;;;;4997509;28;20726;-73
2023/12/20 15:26:42;;;;;;;;;;;;;;;;;;5014193;28;20787;-73
2023/12/20 15:29:09;;;;;;;;;;;;;;;;;;4998573;28;20059;-74
2023/12/20 15:31:34;;;;;;;;;;;;;;;;;;5015883;28;20772;-75
2023/12/20 15:34:00;;;;;;;;;;;;;;;;;;5030111;28;19921;-73
2023/12/20 15:36:25;;;;;;;;;;;;;;;;;;5016769;28;19917;-76
2023/12/20 15:38:51;;;;;;;;;;;;;;;;;;4996770;28;21507;-75
2023/12/20 15:41:16;;;;;;;;;;;;;;;;;;4997825;28;19991;-77
2023/12/20 15:43:41;;;;;;;;;;;;;;;;;;4996555;28;19931;-77
2023/12/20 15:46:06;;;;;;;;;;;;;;;;;;4998018;28;19924;-78
2023/12/20 15:48:32;;;;;;;;;;;;;;;;;;4994456;28;19921;-76
2023/12/20 15:50:57;;;;;;;;;;;;;;;;;;4996165;28;19921;-75
2023/12/20 15:53:22;;;;;;;;;;;;;;;;;;5015112;28;19921;-75
2023/12/20 15:55:48;;;;;;;;;;;;;;;;;;4978999;28;20289;-75
2023/12/20 15:58:13;;;;;;;;;;;;;;;;;;5030942;28;19925;-75
2023/12/20 16:00:38;;;;;;;;;;;;;;;;;;4998426;28;20304;-74
2023/12/20 16:03:04;;;;;;;;;;;;;;;;;;5015435;28;19956;-76
2023/12/20 16:05:29;;;;;;;;;;;;;;;;;;4978708;28;19921;-74
2023/12/20 16:07:54;;;;;;;;;;;;;;;;;;4997201;28;19917;-75
2023/12/20 16:10:20;;;;;;;;;;;;;;;;;;5015241;28;19975;-74
2023/12/20 16:12:45;;;;;;;;;;;;;;;;;;4996461;28;19964;-74
2023/12/20 16:15:10;;;;;;;;;;;;;;;;;;4997405;28;20479;-73
2023/12/20 16:17:36;;;;;;;;;;;;;;;;;;4985330;28;19997;-73
2023/12/20 16:20:01;;;;;;;;;;;;;;;;;;5029571;28;19924;-73
2023/12/20 16:22:26;;;;;;;;;;;;;;;;;;4997019;28;19929;-74
2023/12/20 16:24:52;;;;;;;;;;;;;;;;;;4978253;28;20068;-74
2023/12/20 16:27:17;;;;;;;;;;;;;;;;;;5012690;28;19931;-74
2023/12/20 16:29:43;;;;;;;;;;;;;;;;;;4995811;28;19920;-73
2023/12/20 16:32:09;;;;;;;;;;;;;;;;;;5012397;28;19952;-74
2023/12/20 16:34:34;;;;;;;;;;;;;;;;;;4996984;28;20007;-73
2023/12/20 16:37:00;;;;;;;;;;;;;;;;;;4996180;28;19925;-73
2023/12/20 16:39:25;;;;;;;;;;;;;;;;;;4995838;28;19921;-73
2023/12/20 16:41:50;;;;;;;;;;;;;;;;;;5012474;28;20551;-72
2023/12/20 16:44:16;;;;;;;;;;;;;;;;;;4994791;28;19917;-73
2023/12/20 16:46:41;;;;;;;;;;;;;;;;;;4995235;28;20163;-76
2023/12/20 16:49:06;;;;;;;;;;;;;;;;;;5027592;28;19920;-74
2023/12/20 16:51:33;;;;;;;;;;;;;;;;;;5012426;28;20256;-74
2023/12/20 16:53:59;;;;;;;;;;;;;;;;;;5014644;28;20020;-73